Аэропорт: Омск-Центральный. Омск

ICAO: UNOO

METAR:
2019-11-21 01:30:00
UNOO 210130Z 28003MPS 6000 -SN BKN009 M22/M25 Q1035 R25/410250 NOSIG RMK QFE768
METAR:
2019-11-20 22:53:00
TAF UNOO 202253Z 2100/2124 27003G08MPS 6000 SCT011 TEMPO 2100/2106 1000 SN BR BKN005 TEMPO 2106/2124 27006G12MPS 3100 -SN BKN011